| time (UTC) | temp F | wind direction | speed MPH | gust MPH | rain 1hr in | rain 24hr in | rain mn in | humidity % | barometer mb |
| 20260502203536 | 61 | 360 | 10.0 | 22.0 | 0.00 | 0.00 | 0.00 | 55 | 1015.1 |
| 20260502203035 | 62 | 360 | 10.0 | 22.0 | 0.00 | 0.00 | 0.00 | 51 | 1015.2 |
| 20260502202535 | 64 | 342 | 6.0 | 15.0 | 0.00 | 0.00 | 0.00 | 37 | 1014.8 |
| 20260502202037 | 65 | 326 | 8.0 | 15.0 | 0.00 | 0.00 | 0.00 | 35 | 1014.8 |
| 20260502201544 | 65 | 355 | 5.0 | 12.0 | 0.00 | 0.00 | 0.00 | 35 | 1014.7 |
| 20260502201035 | 65 | 331 | 6.0 | 15.0 | 0.00 | 0.00 | 0.00 | 34 | 1014.7 |
| 20260502200535 | 64 | 288 | 7.0 | 15.0 | 0.00 | 0.00 | 0.00 | 34 | 1014.7 |
| 20260502200039 | 64 | 329 | 7.0 | 19.0 | 0.00 | 0.00 | 0.00 | 35 | 1014.8 |
| 20260502195534 | 65 | 5 | 6.0 | 19.0 | 0.00 | 0.00 | 0.00 | 35 | 1014.8 |
| 20260502195033 | 65 | 355 | 8.0 | 17.0 | 0.00 | 0.00 | 0.00 | 34 | 1014.8 |
| 20260502194538 | 66 | 321 | 4.0 | 17.0 | 0.00 | 0.00 | 0.00 | 30 | 1014.7 |
| 20260502194032 | 67 | 279 | 5.0 | 14.0 | 0.00 | 0.00 | 0.00 | 32 | 1014.7 |
| 20260502193532 | 67 | 312 | 5.0 | 15.0 | 0.00 | 0.00 | 0.00 | 34 | 1014.6 |
| 20260502193038 | 67 | 298 | 6.0 | 15.0 | 0.00 | 0.00 | 0.00 | 33 | 1014.7 |
| 20260502192530 | 66 | 216 | 2.0 | 13.0 | 0.00 | 0.00 | 0.00 | 33 | 1014.5 |
| 20260502192029 | 65 | 304 | 6.0 | 14.0 | 0.00 | 0.00 | 0.00 | 35 | 1014.6 |
| 20260502191530 | 66 | 360 | 6.0 | 12.0 | 0.00 | 0.00 | 0.00 | 35 | 1014.6 |
| 20260502191031 | 65 | 306 | 4.0 | 14.0 | 0.00 | 0.00 | 0.00 | 38 | 1014.5 |
| 20260502190529 | 64 | 271 | 5.0 | 17.0 | 0.00 | 0.00 | 0.00 | 35 | 1014.5 |
| 20260502190040 | 65 | 312 | 4.0 | 17.0 | 0.00 | 0.00 | 0.00 | 36 | 1014.5 |
| 20260502185528 | 65 | 328 | 7.0 | 15.0 | 0.00 | 0.00 | 0.00 | 39 | 1014.6 |
| 20260502185026 | 65 | 317 | 2.0 | 9.0 | 0.00 | 0.00 | 0.00 | 41 | 1014.6 |
| 20260502184526 | 65 | 345 | 3.0 | 13.0 | 0.00 | 0.00 | 0.00 | 42 | 1014.6 |
| 20260502184026 | 64 | 314 | 6.0 | 13.0 | 0.00 | 0.00 | 0.00 | 44 | 1014.7 |
| 20260502183526 | 64 | 286 | 4.0 | 10.0 | 0.00 | 0.00 | 0.00 | 41 | 1014.6 |
| 20260502183026 | 66 | 334 | 3.0 | 11.0 | 0.00 | 0.00 | 0.00 | 43 | 1014.7 |
| 20260502182526 | 65 | 243 | 3.0 | 11.0 | 0.00 | 0.00 | 0.00 | 42 | 1014.8 |
| 20260502182026 | 65 | 227 | 1.0 | 6.0 | 0.00 | 0.00 | 0.00 | 45 | 1015.0 |
| 20260502181523 | 65 | 284 | 1.0 | 13.0 | 0.00 | 0.00 | 0.00 | 45 | 1015.0 |
| 20260502181023 | 65 | 263 | 5.0 | 13.0 | 0.00 | 0.00 | 0.00 | 42 | 1014.9 |
| 20260502180523 | 64 | 184 | 3.0 | 11.0 | 0.00 | 0.00 | 0.00 | 42 | 1015.0 |
| 20260502170519 | 64 | 211 | 4.0 | 8.0 | 0.00 | 0.00 | 0.00 | 43 | 1015.6 |
| 20260502164018 | 64 | 220 | 2.0 | 8.0 | 0.00 | 0.00 | 0.00 | 45 | 1015.9 |
| 20260502163518 | 64 | 185 | 2.0 | 9.0 | 0.00 | 0.00 | 0.00 | 46 | 1015.9 |
| 20260502163018 | 63 | 246 | 1.0 | 7.0 | 0.00 | 0.00 | 0.00 | 46 | 1015.9 |
| 20260502162515 | 63 | 189 | 3.0 | 8.0 | 0.00 | 0.00 | 0.00 | 45 | 1016.0 |
| 20260502162016 | 62 | 200 | 2.0 | 7.0 | 0.00 | 0.00 | 0.00 | 44 | 1016.0 |
| 20260502161514 | 63 | 223 | 2.0 | 9.0 | 0.00 | 0.00 | 0.00 | 45 | 1016.1 |
| 20260502161014 | 62 | 187 | 4.0 | 9.0 | 0.00 | 0.00 | 0.00 | 45 | 1016.2 |
| 20260502160517 | 63 | 186 | 2.0 | 9.0 | 0.00 | 0.00 | 0.00 | 43 | 1016.2 |
| 20260502152006 | 61 | 232 | 2.0 | 6.0 | 0.00 | 0.00 | 0.00 | 49 | 1016.3 |
| 20260502151515 | 61 | 180 | 2.0 | 6.0 | 0.00 | 0.00 | 0.00 | 51 | 1016.2 |
| 20260502151004 | 61 | 180 | 2.0 | 5.0 | 0.00 | 0.00 | 0.00 | 49 | 1016.3 |
| 20260502150503 | 61 | 180 | 1.0 | 7.0 | 0.00 | 0.00 | 0.00 | 52 | 1016.2 |
| 20260502130540 | 53 | 24 | 0.0 | 0.0 | 0.00 | 0.00 | 0.00 | 74 | 1016.2 |
| 20260502123534 | 51 | 24 | 0.0 | 0.0 | 0.00 | 0.00 | 0.00 | 82 | 1016.1 |
| 20260502123038 | 50 | 24 | 0.0 | 0.0 | 0.00 | 0.00 | 0.00 | 85 | 1016.2 |
| 20260502122532 | 49 | 24 | 0.0 | 0.0 | 0.00 | 0.00 | 0.00 | 88 | 1016.1 |
| 20260502122033 | 47 | 24 | 0.0 | 0.0 | 0.00 | 0.00 | 0.00 | 88 | 1015.9 |
| 20260502121533 | 47 | 24 | 0.0 | 0.0 | 0.00 | 0.00 | 0.00 | 90 | 1015.9 |
| 20260502121029 | 46 | 24 | 0.0 | 0.0 | 0.00 | 0.00 | 0.00 | 92 | 1015.8 |
| 20260502120527 | 45 | 24 | 0.0 | 0.0 | 0.00 | 0.00 | 0.00 | 93 | 1015.8 |
| 20260502115524 | 43 | 24 | 0.0 | 0.0 | 0.00 | 0.00 | 0.00 | 92 | 1015.7 |
| 20260502115022 | 43 | 24 | 0.0 | 0.0 | 0.00 | 0.00 | 0.00 | 92 | 1015.6 |
| 20260502114521 | 43 | 24 | 0.0 | 0.0 | 0.00 | 0.00 | 0.00 | 91 | 1015.6 |
| 20260502114021 | 43 | 24 | 0.0 | 0.0 | 0.00 | 0.00 | 0.00 | 92 | 1015.5 |
| 20260502113520 | 42 | 24 | 0.0 | 0.0 | 0.00 | 0.00 | 0.00 | 92 | 1015.4 |
| 20260502113025 | 42 | 24 | 0.0 | 0.0 | 0.00 | 0.00 | 0.00 | 92 | 1015.4 |
| 20260502112519 | 42 | 24 | 0.0 | 0.0 | 0.00 | 0.00 | 0.00 | 91 | 1015.3 |
| 20260502112018 | 42 | 24 | 0.0 | 0.0 | 0.00 | 0.00 | 0.00 | 91 | 1015.4 |
| 20260502111518 | 42 | 24 | 0.0 | 0.0 | 0.00 | 0.00 | 0.00 | 91 | 1015.4 |
| 20260502111017 | 42 | 24 | 0.0 | 0.0 | 0.00 | 0.00 | 0.00 | 91 | 1015.4 |
| 20260502110517 | 42 | 24 | 0.0 | 0.0 | 0.00 | 0.00 | 0.00 | 90 | 1015.3 |
| 20260502110017 | 42 | 24 | 0.0 | 0.0 | 0.00 | 0.00 | 0.00 | 90 | 1015.3 |
| 20260502105519 | 42 | 24 | 0.0 | 0.0 | 0.00 | 0.00 | 0.00 | 89 | 1015.3 |
| 20260502105015 | 42 | 24 | 0.0 | 0.0 | 0.00 | 0.00 | 0.00 | 89 | 1015.2 |
| 20260502104515 | 42 | 24 | 0.0 | 0.0 | 0.00 | 0.00 | 0.00 | 89 | 1015.1 |
| 20260502104015 | 42 | 24 | 0.0 | 0.0 | 0.00 | 0.00 | 0.00 | 88 | 1015.2 |
| 20260502103514 | 43 | 24 | 0.0 | 0.0 | 0.00 | 0.00 | 0.00 | 89 | 1015.2 |
| 20260502103013 | 43 | 24 | 0.0 | 0.0 | 0.00 | 0.00 | 0.00 | 89 | 1015.1 |
| 20260502102513 | 43 | 24 | 0.0 | 0.0 | 0.00 | 0.00 | 0.00 | 89 | 1015.0 |
| 20260502102013 | 43 | 24 | 0.0 | 0.0 | 0.00 | 0.00 | 0.00 | 89 | 1015.0 |
| 20260502101512 | 43 | 24 | 0.0 | 0.0 | 0.00 | 0.00 | 0.00 | 90 | 1014.9 |
| 20260502101012 | 43 | 24 | 0.0 | 0.0 | 0.00 | 0.00 | 0.00 | 89 | 1015.0 |
| 20260502100512 | 43 | 24 | 0.0 | 0.0 | 0.00 | 0.00 | 0.00 | 89 | 1015.1 |
| 20260502091506 | 44 | 24 | 0.0 | 0.0 | 0.00 | 0.00 | 0.00 | 88 | 1014.7 |
| 20260502091006 | 44 | 24 | 0.0 | 0.0 | 0.00 | 0.00 | 0.00 | 87 | 1014.7 |
| 20260502090509 | 44 | 24 | 0.0 | 0.0 | 0.00 | 0.00 | 0.00 | 87 | 1014.7 |
| 20260502080109 | 44 | 24 | 0.0 | 0.0 | 0.00 | 0.00 | 0.00 | 86 | 1015.0 |
| 20260502071053 | 44 | 24 | 0.0 | 0.0 | 0.00 | 0.00 | 0.00 | 83 | 1015.3 |
| 20260502070552 | 45 | 24 | 0.0 | 0.0 | 0.00 | 0.00 | 0.00 | 82 | 1015.3 |
| 20260502070105 | 45 | 24 | 0.0 | 0.0 | 0.00 | 0.00 | 0.00 | 81 | 1015.4 |
| 20260502065553 | 46 | 24 | 0.0 | 0.0 | 0.00 | 0.00 | 0.00 | 81 | 1015.5 |
| 20260502065049 | 46 | 24 | 0.0 | 0.0 | 0.00 | 0.00 | 0.00 | 81 | 1015.5 |
| 20260502064559 | 46 | 24 | 0.0 | 0.0 | 0.00 | 0.00 | 0.00 | 80 | 1015.5 |
| 20260502064047 | 46 | 24 | 0.0 | 0.0 | 0.00 | 0.00 | 0.00 | 80 | 1015.6 |
| 20260502063546 | 46 | 24 | 0.0 | 0.0 | 0.00 | 0.00 | 0.00 | 80 | 1015.6 |
| 20260502063051 | 47 | 24 | 0.0 | 0.0 | 0.00 | 0.00 | 0.00 | 79 | 1015.6 |
| 20260502062545 | 47 | 24 | 0.0 | 0.0 | 0.00 | 0.00 | 0.00 | 79 | 1015.6 |
| 20260502062045 | 47 | 24 | 0.0 | 0.0 | 0.00 | 0.00 | 0.00 | 79 | 1015.6 |
| 20260502061544 | 47 | 24 | 0.0 | 0.0 | 0.00 | 0.00 | 0.00 | 78 | 1015.6 |
| 20260502061042 | 47 | 24 | 0.0 | 0.0 | 0.00 | 0.00 | 0.00 | 77 | 1015.7 |
| 20260502060541 | 48 | 24 | 0.0 | 0.0 | 0.00 | 0.00 | 0.00 | 76 | 1015.8 |
| 20260502060042 | 48 | 24 | 0.0 | 0.0 | 0.00 | 0.00 | 0.00 | 77 | 1015.8 |
| 20260502055544 | 48 | 24 | 0.0 | 0.0 | 0.00 | 0.00 | 0.00 | 76 | 1015.7 |
| 20260502055043 | 48 | 24 | 0.0 | 0.0 | 0.00 | 0.00 | 0.00 | 76 | 1015.7 |
| 20260502054539 | 48 | 24 | 0.0 | 0.0 | 0.00 | 0.00 | 0.00 | 75 | 1015.6 |
| 20260502054042 | 48 | 24 | 0.0 | 0.0 | 0.00 | 0.00 | 0.00 | 71 | 1015.4 |
| 20260502053538 | 48 | 24 | 0.0 | 0.0 | 0.00 | 0.00 | 0.00 | 70 | 1015.4 |
| 20260502053038 | 48 | 24 | 0.0 | 0.0 | 0.00 | 0.00 | 0.00 | 70 | 1015.3 |
| 20260502052537 | 48 | 24 | 0.0 | 0.0 | 0.00 | 0.00 | 0.00 | 71 | 1015.3 |
| 20260502052037 | 48 | 24 | 0.0 | 0.0 | 0.00 | 0.00 | 0.00 | 73 | 1015.3 |
| 20260502051536 | 48 | 24 | 0.0 | 0.0 | 0.00 | 0.00 | 0.00 | 76 | 1015.4 |
| 20260502051033 | 49 | 24 | 0.0 | 0.0 | 0.00 | 0.00 | 0.00 | 74 | 1015.4 |
| 20260502050533 | 50 | 24 | 0.0 | 0.0 | 0.00 | 0.00 | 0.00 | 69 | 1015.4 |
| 20260502050040 | 50 | 24 | 0.0 | 0.0 | 0.00 | 0.00 | 0.00 | 65 | 1015.4 |
| 20260502045531 | 51 | 24 | 0.0 | 0.0 | 0.00 | 0.00 | 0.00 | 64 | 1015.4 |
| 20260502045031 | 51 | 24 | 0.0 | 0.0 | 0.00 | 0.00 | 0.00 | 64 | 1015.4 |
| 20260502044531 | 51 | 24 | 0.0 | 1.0 | 0.00 | 0.00 | 0.00 | 63 | 1015.2 |
| 20260502044030 | 51 | 24 | 0.0 | 3.0 | 0.00 | 0.00 | 0.00 | 62 | 1015.3 |
| 20260502043530 | 51 | 23 | 0.0 | 2.0 | 0.00 | 0.00 | 0.00 | 63 | 1015.3 |
| 20260502043030 | 51 | 23 | 0.0 | 2.0 | 0.00 | 0.00 | 0.00 | 63 | 1015.3 |
| 20260502042530 | 51 | 19 | 0.0 | 2.0 | 0.00 | 0.00 | 0.00 | 62 | 1015.4 |
| 20260502042032 | 51 | 19 | 0.0 | 2.0 | 0.00 | 0.00 | 0.00 | 62 | 1015.5 |
| 20260502041530 | 50 | 18 | 0.0 | 2.0 | 0.00 | 0.00 | 0.00 | 64 | 1015.5 |
| 20260502041029 | 50 | 17 | 0.0 | 1.0 | 0.00 | 0.00 | 0.00 | 65 | 1015.5 |
| 20260502040529 | 49 | 16 | 0.0 | 0.0 | 0.00 | 0.00 | 0.00 | 69 | 1015.6 |
| 20260502040030 | 50 | 16 | 0.0 | 0.0 | 0.00 | 0.00 | 0.00 | 74 | 1015.7 |
| 20260502035530 | 50 | 16 | 0.0 | 0.0 | 0.00 | 0.00 | 0.00 | 74 | 1015.8 |
| 20260502035029 | 50 | 16 | 0.0 | 0.0 | 0.00 | 0.00 | 0.00 | 74 | 1015.9 |
| 20260502034529 | 50 | 16 | 0.0 | 0.0 | 0.00 | 0.00 | 0.00 | 72 | 1016.0 |
| 20260502034028 | 50 | 16 | 0.0 | 0.0 | 0.00 | 0.00 | 0.00 | 72 | 1016.0 |
| 20260502033530 | 51 | 16 | 0.0 | 1.0 | 0.00 | 0.00 | 0.00 | 71 | 1016.0 |
| 20260502033030 | 51 | 16 | 0.0 | 1.0 | 0.00 | 0.00 | 0.00 | 66 | 1016.0 |
| 20260502032530 | 51 | 16 | 0.0 | 0.0 | 0.00 | 0.00 | 0.00 | 63 | 1016.1 |
| 20260502032028 | 51 | 16 | 0.0 | 0.0 | 0.00 | 0.00 | 0.00 | 65 | 1016.2 |
| 20260502031528 | 51 | 16 | 0.0 | 0.0 | 0.00 | 0.00 | 0.00 | 66 | 1016.2 |
| 20260502031028 | 51 | 16 | 0.0 | 0.0 | 0.00 | 0.00 | 0.00 | 66 | 1016.2 |
| 20260502030527 | 52 | 16 | 0.0 | 0.0 | 0.00 | 0.00 | 0.00 | 66 | 1016.2 |
| 20260502030028 | 52 | 16 | 0.0 | 0.0 | 0.00 | 0.00 | 0.00 | 64 | 1016.3 |
| 20260502025527 | 53 | 16 | 0.0 | 0.0 | 0.00 | 0.00 | 0.00 | 62 | 1016.4 |
| 20260502025026 | 53 | 16 | 0.0 | 0.0 | 0.00 | 0.00 | 0.00 | 60 | 1016.4 |
| 20260502024526 | 54 | 16 | 0.0 | 0.0 | 0.00 | 0.00 | 0.00 | 59 | 1016.4 |
| 20260502024028 | 54 | 16 | 0.0 | 0.0 | 0.00 | 0.00 | 0.00 | 58 | 1016.4 |
| 20260502023526 | 54 | 16 | 0.0 | 0.0 | 0.00 | 0.00 | 0.00 | 58 | 1016.5 |
| 20260502023026 | 54 | 16 | 0.0 | 0.0 | 0.00 | 0.00 | 0.00 | 53 | 1016.5 |
| 20260502022527 | 54 | 16 | 0.0 | 0.0 | 0.00 | 0.00 | 0.00 | 54 | 1016.4 |
| 20260502022026 | 54 | 16 | 0.0 | 0.0 | 0.00 | 0.00 | 0.00 | 56 | 1016.4 |
| 20260502021526 | 54 | 16 | 0.0 | 0.0 | 0.00 | 0.00 | 0.00 | 56 | 1016.4 |
| 20260502021027 | 54 | 16 | 0.0 | 0.0 | 0.00 | 0.00 | 0.00 | 56 | 1016.3 |
| 20260502020527 | 54 | 16 | 0.0 | 0.0 | 0.00 | 0.00 | 0.00 | 58 | 1016.1 |
| 20260502020026 | 54 | 16 | 0.0 | 0.0 | 0.00 | 0.00 | 0.00 | 58 | 1016.0 |
| 20260502015527 | 54 | 16 | 0.0 | 1.0 | 0.00 | 0.00 | 0.00 | 58 | 1016.0 |
| 20260502015028 | 54 | 16 | 0.0 | 2.0 | 0.00 | 0.00 | 0.00 | 58 | 1016.0 |
| 20260502014525 | 54 | 16 | 0.0 | 2.0 | 0.00 | 0.00 | 0.00 | 56 | 1015.9 |
| 20260502014025 | 54 | 16 | 0.0 | 1.0 | 0.00 | 0.00 | 0.00 | 55 | 1016.0 |
| 20260502013525 | 55 | 16 | 0.0 | 1.0 | 0.00 | 0.00 | 0.00 | 55 | 1015.9 |
| 20260502013025 | 55 | 16 | 0.0 | 1.0 | 0.00 | 0.00 | 0.00 | 54 | 1015.8 |
| 20260502012525 | 55 | 16 | 0.0 | 0.0 | 0.00 | 0.00 | 0.00 | 55 | 1015.8 |
| 20260502012024 | 55 | 16 | 0.0 | 1.0 | 0.00 | 0.00 | 0.00 | 55 | 1015.6 |
| 20260502011524 | 56 | 16 | 0.0 | 2.0 | 0.00 | 0.00 | 0.00 | 55 | 1015.5 |
| 20260502011024 | 56 | 16 | 1.0 | 3.0 | 0.00 | 0.00 | 0.00 | 53 | 1015.3 |
| 20260502010524 | 56 | 16 | 1.0 | 3.0 | 0.00 | 0.00 | 0.00 | 52 | 1015.3 |
| 20260502010025 | 56 | 16 | 1.0 | 6.0 | 0.00 | 0.00 | 0.00 | 51 | 1015.2 |
| 20260502005527 | 56 | 13 | 0.0 | 6.0 | 0.00 | 0.00 | 0.00 | 52 | 1015.2 |
| 20260502005023 | 56 | 360 | 1.0 | 3.0 | 0.00 | 0.00 | 0.00 | 51 | 1015.0 |
| 20260502004523 | 57 | 5 | 0.0 | 2.0 | 0.00 | 0.00 | 0.00 | 51 | 1015.0 |
| 20260502004022 | 57 | 5 | 0.0 | 3.0 | 0.00 | 0.00 | 0.00 | 49 | 1015.0 |
| 20260502003522 | 58 | 5 | 0.0 | 4.0 | 0.00 | 0.00 | 0.00 | 48 | 1014.9 |
| 20260502003022 | 58 | 12 | 0.0 | 6.0 | 0.00 | 0.00 | 0.00 | 48 | 1014.8 |
| 20260502002522 | 58 | 355 | 1.0 | 6.0 | 0.00 | 0.00 | 0.00 | 47 | 1014.6 |
| 20260502002025 | 59 | 14 | 1.0 | 6.0 | 0.00 | 0.00 | 0.00 | 45 | 1014.5 |
| 20260502001522 | 59 | 355 | 2.0 | 8.0 | 0.00 | 0.00 | 0.00 | 44 | 1014.3 |
| 20260502001023 | 59 | 355 | 3.0 | 8.0 | 0.00 | 0.00 | 0.00 | 42 | 1014.3 |
| 20260502000522 | 60 | 340 | 2.0 | 9.0 | 0.00 | 0.00 | 0.00 | 42 | 1014.2 |
| 20260502000030 | 61 | 346 | 3.0 | 10.0 | 0.00 | 0.00 | 0.00 | 43 | 1014.2 |
| 20260501235521 | 61 | 9 | 5.0 | 11.0 | 0.00 | 0.00 | 0.00 | 41 | 1014.1 |
| 20260501235024 | 62 | 15 | 5.0 | 11.0 | 0.00 | 0.00 | 0.00 | 41 | 1014.1 |
| 20260501234521 | 62 | 16 | 3.0 | 9.0 | 0.00 | 0.00 | 0.00 | 40 | 1014.1 |
| 20260501234021 | 62 | 327 | 4.0 | 9.0 | 0.00 | 0.00 | 0.00 | 39 | 1013.9 |
| 20260501233521 | 62 | 5 | 3.0 | 9.0 | 0.00 | 0.00 | 0.00 | 39 | 1013.9 |
| 20260501233021 | 63 | 337 | 4.0 | 11.0 | 0.00 | 0.00 | 0.00 | 38 | 1013.8 |
| 20260501232520 | 63 | 5 | 4.0 | 9.0 | 0.00 | 0.00 | 0.00 | 38 | 1013.5 |
| 20260501232020 | 63 | 333 | 5.0 | 11.0 | 0.00 | 0.00 | 0.00 | 38 | 1013.4 |
| 20260501231520 | 62 | 5 | 4.0 | 11.0 | 0.00 | 0.00 | 0.00 | 38 | 1013.4 |
| 20260501231020 | 62 | 5 | 4.0 | 11.0 | 0.00 | 0.00 | 0.00 | 39 | 1013.5 |
| 20260501230524 | 62 | 340 | 4.0 | 9.0 | 0.00 | 0.00 | 0.00 | 38 | 1013.5 |
| 20260501230021 | 63 | 340 | 4.0 | 11.0 | 0.00 | 0.00 | 0.00 | 37 | 1013.5 |
| 20260501225520 | 63 | 13 | 4.0 | 10.0 | 0.00 | 0.00 | 0.00 | 35 | 1013.4 |
| 20260501225019 | 64 | 342 | 2.0 | 11.0 | 0.00 | 0.00 | 0.00 | 34 | 1013.3 |
| 20260501224527 | 64 | 355 | 3.0 | 13.0 | 0.00 | 0.00 | 0.00 | 35 | 1013.3 |
| 20260501224019 | 64 | 14 | 5.0 | 13.0 | 0.00 | 0.00 | 0.00 | 33 | 1013.2 |
| 20260501223519 | 64 | 333 | 3.0 | 11.0 | 0.00 | 0.00 | 0.00 | 37 | 1013.2 |
| 20260501223019 | 64 | 311 | 5.0 | 11.0 | 0.00 | 0.00 | 0.00 | 36 | 1013.1 |
| 20260501222519 | 64 | 10 | 4.0 | 11.0 | 0.00 | 0.00 | 0.00 | 36 | 1012.9 |
| 20260501222020 | 64 | 344 | 5.0 | 13.0 | 0.00 | 0.00 | 0.00 | 35 | 1012.9 |
| 20260501221518 | 65 | 9 | 6.0 | 13.0 | 0.00 | 0.00 | 0.00 | 35 | 1012.8 |
| 20260501221018 | 65 | 10 | 6.0 | 11.0 | 0.00 | 0.00 | 0.00 | 33 | 1012.9 |
| 20260501220518 | 65 | 343 | 4.0 | 9.0 | 0.00 | 0.00 | 0.00 | 34 | 1012.9 |
| 20260501220024 | 65 | 346 | 3.0 | 12.0 | 0.00 | 0.00 | 0.00 | 35 | 1012.9 |
| 20260501215520 | 64 | 341 | 6.0 | 12.0 | 0.00 | 0.00 | 0.00 | 36 | 1013.1 |
| 20260501215016 | 64 | 338 | 4.0 | 12.0 | 0.00 | 0.00 | 0.00 | 33 | 1013.3 |
| 20260501214516 | 65 | 343 | 5.0 | 13.0 | 0.00 | 0.00 | 0.00 | 35 | 1013.2 |
| 20260501214015 | 65 | 35 | 6.0 | 13.0 | 0.00 | 0.00 | 0.00 | 36 | 1013.1 |
| 20260501213518 | 65 | 17 | 4.0 | 10.0 | 0.00 | 0.00 | 0.00 | 35 | 1013.1 |
| 20260501213015 | 65 | 11 | 5.0 | 10.0 | 0.00 | 0.00 | 0.00 | 39 | 1013.0 |
| 20260501212515 | 65 | 349 | 3.0 | 10.0 | 0.00 | 0.00 | 0.00 | 34 | 1013.1 |
| 20260501212014 | 65 | 350 | 2.0 | 8.0 | 0.00 | 0.00 | 0.00 | 41 | 1013.3 |
| 20260501211520 | 65 | 44 | 1.0 | 10.0 | 0.00 | 0.00 | 0.00 | 39 | 1013.4 |
| 20260501211013 | 64 | 21 | 6.0 | 13.0 | 0.00 | 0.00 | 0.00 | 36 | 1013.4 |
| 20260501210517 | 64 | 327 | 4.0 | 11.0 | 0.00 | 0.00 | 0.00 | 38 | 1013.6 |